Indian Mills, New Jersey
Current Conditions -  °F | °C
As of 10:54 AM on Saturday 20 Dec 2014 (Local Time) from KVAY Reporting Station
Overcast Overcast  
Wind Chill: -4°   Ceiling: 2700
Heat Index:   Visibility: 10mi
Dew Point: -7°   Wind: 7mph
Humidity: 61%   Direction: 360°N
Pressure: 30.31"   Gusts: NA
Location:  39.7955°N, 74.6301°W
Report Text: KVAY 201554Z AUTO 36006KT 10SM OVC027 00/M07 A3031 RMK AO2 SLP265 T00001067
Loading
Personal Weather Stations






























Interactive Weather Map New forecast layout! Learn more

10-Day Weather Forecast

Advertisements
Track Severe Weather on mobile